Delta, Utah Weather observations

Data are for observation ending at time listed.
 Day   Time    Ave.   Ave.  Ave.  Vector   Max.   Stn.    Total    Solar   Ave.  
  of    of     Air    Rel.  Wind   Wind    Wind   Baro.  Precip.   Rad.    Soil  
Year   Day     Temp.  Hum.  Speed  Dir.    Gust   Pres.                    Temp. 
2014   (MST)    F      %     mph   deg.    mph     mb.     in.     W/m2     F   
------------------------------------------------------------------------------
 232   23:10   64.0    49    3.3   157      5.1   859.9    0.00       0    99999.0
 232   23:20   63.8    50    3.5   154      5.3   859.8    0.00       0    99999.0
 232   23:30   63.7    50    3.4   147      5.1   859.8    0.00       0    99999.0
 232   23:40   63.6    50    2.8   147      4.6   859.8    0.00       0    99999.0
 232   23:50   63.2    52    2.7   140      4.0   860.0    0.00       0    99999.0
 233    0:00   62.7    53    2.7   138      4.2   860.0    0.00       0    99999.0
 233    0:10   62.5    53    2.6   137      3.7   860.0    0.00       0    99999.0
 233    0:20   62.3    53    3.0   139      4.3   860.1    0.00       0    99999.0
 233    0:30   61.8    54    2.3   143      3.7   860.1    0.00       0    99999.0
 233    0:40   61.4    56    2.8   140      3.8   860.0    0.00       0    99999.0
 233    0:50   61.1    57    2.0   136      3.2   860.0    0.00       0    99999.0
 233    1:00   60.9    58    2.1   132      3.6   859.9    0.00       0    99999.0
 233    1:10   60.6    59    2.4   138      3.7   859.9    0.00       0    99999.0
 233    1:20   60.3    60    2.3   134      3.4   859.9    0.00       0    99999.0
 233    1:30   59.6    62    2.2   133      3.2   859.9    0.00       0    99999.0
 233    1:40   59.3    63    2.4   135      3.8   860.0    0.00       0    99999.0
 233    1:50   59.1    65    2.6   137      3.8   860.0    0.00       0    99999.0
 233    2:00   58.9    65    2.6   138      3.4   860.1    0.00       0    99999.0
 233    2:10   58.8    65    2.4   137      3.5   860.0    0.00       0    99999.0
 233    2:20   58.7    66    2.3   133      3.8   860.0    0.00       0    99999.0
 233    2:30   58.7    66    2.3   132      3.6   860.1    0.00       0    99999.0
 233    2:40   58.5    66    2.4   134      3.5   860.2    0.00       0    99999.0
 233    2:50   58.7    65    2.7   135      3.9   860.2    0.00       0    99999.0
 233    3:00   58.6    65    2.9   136      4.4   860.3    0.00       0    99999.0
 233    3:10   58.9    64    3.2   140      4.7   860.3    0.00       0    99999.0
 233    3:20   59.1    63    3.2   143      5.0   860.4    0.00       0    99999.0
 233    3:30   60.0    61    3.4   149      5.2   860.5    0.00       0    99999.0
 233    3:40   60.8    59    3.9   149      5.8   860.4    0.00       0    99999.0
 233    3:50   61.2    58    3.8   143      6.9   860.4    0.00       0    99999.0
 233    4:00   60.0    60    3.3   132      5.1   860.4    0.00       0    99999.0
 233    4:10   59.0    62    3.2   136      5.0   860.4    0.00       0    99999.0
 233    4:20   58.4    64    3.0   138      4.8   860.4    0.00       0    99999.0
 233    4:30   58.8    62    3.6   144      5.2   860.4    0.00       0    99999.0
 233    4:40   59.4    60    3.9   142      6.5   860.4    0.00       0    99999.0
 233    4:50   59.9    59    3.8   146      6.4   860.5    0.00       0    99999.0
 233    5:00   60.1    58    4.6   147      7.7   860.6    0.00       0    99999.0
 233    5:10   60.5    57    4.5   147      6.9   860.6    0.00       0    99999.0
 233    5:20   59.8    59    3.4   142      5.3   860.7    0.00       0    99999.0
 233    5:30   59.9    58    2.9   148      5.0   860.7    0.00       0    99999.0
 233    5:40   59.4    60    2.8   152      5.0   860.8    0.00       0    99999.0
 233    5:50   59.2    60    3.0   153      5.5   860.9    0.00       1    99999.0
 233    6:00   59.3    60    2.8   162      4.6   861.0    0.00       3    99999.0
 233    6:10   59.3    60    2.7   163      5.2   861.2    0.00       5    99999.0
 233    6:20   59.0    60    2.9   160      4.9   861.4    0.00      10    99999.0
 233    6:30   58.8    61    2.5   153      4.8   861.4    0.00      20    99999.0
 233    6:40   58.6    63    2.3   133      3.7   861.5    0.00      31    99999.0
 233    6:50   58.7    64    1.8   124      3.7   861.5    0.00      37    99999.0
 233    7:00   58.9    64    1.1    77      2.3   861.6    0.00      42    99999.0
 233    7:10   59.2    64    0.1   246      1.3   861.7    0.00      46    99999.0
 233    7:20   59.9    62    0.5   154      1.8   861.9    0.00      56    99999.0
 233    7:30   61.1    59    2.6   143      4.3   862.0    0.00     116    99999.0
 233    7:40   62.6    57    2.2   159      4.5   862.1    0.00     243    99999.0
 233    7:50   63.9    54    2.6   171      5.4   862.1    0.00     245    99999.0
 233    8:00   64.2    54    2.6   172      4.6   862.1    0.00     272    99999.0
 233    8:10   64.5    53    3.1   169      5.2   862.1    0.00     273    99999.0
 233    8:20   65.6    52    3.1   166      5.4   862.1    0.00     306    99999.0
 233    8:30   67.2    49    3.5   169      5.6   862.1    0.00     338    99999.0
 233    8:40   68.4    49    3.5   181      6.9   862.1    0.00     389    99999.0
 233    8:50   69.4    46    4.6   175      8.3   862.1    0.00     435    99999.0
 233    9:00   70.6    46    4.6   183      8.0   862.1    0.00     445    99999.0
 233    9:10   71.8    43    5.0   183     10.0   862.1    0.00     487    99999.0
 233    9:20   72.7    41    5.6   185      9.3   862.0    0.00     469    99999.0
 233    9:30   73.5    39    5.6   186     10.2   862.0    0.00     524    99999.0
 233    9:40   74.3    38    5.2   179      8.8   862.0    0.00     543    99999.0
 233    9:50   75.1    36    5.3   179     12.0   862.0    0.00     552    99999.0
 233   10:00   75.6    32    5.3   190     10.9   862.0    0.00     560    99999.0
 233   10:10   76.4    31    4.3   205      8.9   862.0    0.00     591    99999.0
 233   10:20   76.9    28    4.5   215      8.4   862.0    0.00     596    99999.0
 233   10:30   77.1    27    4.2   225      8.8   862.1    0.00     623    99999.0
 233   10:40   77.5    26    4.0   231      8.8   862.0    0.00     650    99999.0
 233   10:50   77.9    26    3.7   231      7.7   861.9    0.00     674    99999.0
 233   11:00   78.6    26    3.7   222      6.4   861.9    0.00     669    99999.0
 233   11:10   78.4    25    4.3   218      8.6   861.9    0.00     709    99999.0
 233   11:20   78.6    26    3.8   221      9.6   861.8    0.00     736    99999.0
 233   11:30   78.9    25    4.4   209      8.0   861.7    0.00     750    99999.0
 233   11:40   78.9    24    4.3   220      8.1   861.6    0.00     757    99999.0
 233   11:50   79.4    25    3.4   214      6.4   861.5    0.00     751    99999.0
 233   12:00   80.2    24    2.5   241      5.8   861.4    0.00     746    99999.0
 233   12:10   80.4    24    2.7   260      8.2   861.2    0.00     732    99999.0
 233   12:20   80.4    23    3.4   246      7.3   861.2    0.00     513    99999.0
 233   12:30   80.2    24    2.7   232      5.7   861.1    0.00     744    99999.0
 233   12:40   80.7    23    4.2   191     17.1   860.9    0.00     802    99999.0
 233   12:50   80.6    22    5.0   255     16.1   860.9    0.00     737    99999.0
 233   13:00   81.0    22    1.9   252      6.0   860.9    0.00     724    99999.0
 233   13:10   81.2    21    3.8   205     10.5   860.9    0.00     702    99999.0
 233   13:20   81.1    21    2.5   202      5.8   860.8    0.00     652    99999.0
 233   13:30   81.9    22    3.4   216      6.6   860.6    0.00     758    99999.0
 233   13:40   82.1    20    4.6   227      9.1   860.6    0.00     734    99999.0
 233   13:50   82.1    19    3.5   229      6.7   860.5    0.00     727    99999.0
 233   14:00   82.3    20    5.2   208     11.0   860.5    0.00     731    99999.0
 233   14:10   82.5    18    4.6   226      9.1   860.4    0.00     703    99999.0
 233   14:20   81.8    19    4.5   234      7.9   860.4    0.00     426    99999.0
 233   14:30   81.7    20    5.0   241     11.0   860.3    0.00     645    99999.0
 233   14:40   81.6    20    4.7   246     10.2   860.2    0.00     368    99999.0
 233   14:50   81.0    21    4.8   243      8.2   860.2    0.00     500    99999.0
 233   15:00   81.3    20    4.7   238      8.4   860.1    0.00     342    99999.0
 233   15:10   80.7    20    4.0   240      7.1   860.0    0.00     251    99999.0
 233   15:20   80.6    21    4.7   236      8.4   859.9    0.00     340    99999.0
 233   15:30   80.5    22    4.1   234      6.9   859.8    0.00     266    99999.0
 233   15:40   81.5    20    4.2   236      9.1   859.7    0.00     118    99999.0
 233   15:50   82.0    19    4.3   226      9.0   859.6    0.00     408    99999.0
 233   16:00   82.0    19    4.1   222      7.0   859.5    0.00     281    99999.0
 233   16:10   82.1    18    4.2   215      9.0   859.4    0.00     456    99999.0
 233   16:20   82.0    19    3.7   225      8.3   859.4    0.00     261    99999.0
 233   16:30   82.0    18    5.4   217      9.3   859.3    0.00      69    99999.0
 233   16:40   81.9    19    4.9   214      8.8   859.3    0.00      34    99999.0
 233   16:50   82.3    20    4.0   221      7.4   859.3    0.00      83    99999.0
 233   17:00   82.0    19    4.5   220      8.8   859.3    0.00      80    99999.0
 233   17:10   81.9    20    4.2   219      8.2   859.2    0.00     142    99999.0
 233   17:20   81.9    19    4.3   214      8.8   859.2    0.00      32    99999.0
 233   17:30   81.7    19    3.8   219      6.7   859.1    0.00      30    99999.0
 233   17:40   81.8    19    3.4   230      7.5   859.1    0.00      31    99999.0
 233   17:50   81.9    19    3.4   220      6.4   859.1    0.00      60    99999.0
 233   18:00   81.8    19    3.0   215      6.4   859.0    0.00      28    99999.0
 233   18:10   81.2    22    4.2   216      8.6   859.0    0.00      90    99999.0
 233   18:20   79.9    25    5.5   211     11.2   859.1    0.00      37    99999.0
 233   18:30   79.6    25    4.8   203      8.3   859.1    0.00      21    99999.0
 233   18:40   78.7    26    4.8   194      8.3   859.1    0.00      35    99999.0
 233   18:50   77.5    27    4.9   194      9.3   859.2    0.00      11    99999.0
 233   19:00   77.1    27    4.3   204      7.7   859.3    0.00       6    99999.0
 233   19:10   76.6    28    4.1   199      7.2   859.4    0.00       6    99999.0
 233   19:20   76.1    28    4.1   196      6.8   859.4    0.00       4    99999.0
 233   19:30   75.7    29    3.8   197      6.9   859.4    0.00       0    99999.0
 233   19:40   74.9    30    3.8   192      6.6   859.5    0.00       0    99999.0
 233   19:50   74.0    31    3.6   185      6.8   859.6    0.00       0    99999.0
 233   20:00   73.2    31    3.9   193      6.8   859.7    0.00       0    99999.0
 233   20:10   73.6    30    3.8   194      7.1   859.8    0.00       0    99999.0
 233   20:20   72.8    32    3.8   187      8.0   859.9    0.00       0    99999.0
 233   20:30   72.5    32    3.9   186      7.9   859.9    0.00       0    99999.0
 233   20:40   71.8    33    3.4   180      6.1   860.0    0.00       0    99999.0
 233   20:50   70.9    34    3.8   178      8.4   860.2    0.00       0    99999.0
 233   21:00   71.7    33    6.1   193     12.1   860.3    0.00       0    99999.0
 233   21:10   71.9    33    6.6   193     11.0   860.3    0.00       0    99999.0
 233   21:20   71.4    36    6.3   193     12.3   860.3    0.00       0    99999.0
 233   21:30   70.7    40    5.7   188      9.7   860.3    0.00       0    99999.0
 233   21:40   70.4    42    6.4   190     11.2   860.3    0.00       0    99999.0
 233   21:50   70.4    43    6.9   196     11.8   860.2    0.00       0    99999.0
 233   22:00   70.5    42    7.9   196     12.5   860.2    0.00       0    99999.0
 233   22:10   70.7    42    7.6   194     14.0   860.2    0.00       0    99999.0
 233   22:20   70.3    43    7.0   199     12.0   860.2    0.00       0    99999.0
 233   22:30   69.7    44    5.5   191     10.7   860.3    0.00       0    99999.0
 233   22:40   68.9    46    4.5   166     10.5   860.3    0.00       0    99999.0
 233   22:50   67.4    48    3.5   142      5.5   860.4    0.00       0    99999.0
 233   23:00   66.7    48    3.3   138      5.0   860.4    0.00       0    99999.0

Return to Delta, Utah graphs page.


Western Regional Climate Center,wrcc@dri.edu